Time;durP1;ratioP1;P1;durP2;ratioP2;P2;SDS_P1;SDS_P2;PMS_P1;PMS_P2;Temp;Humidity;BMP_temperature;BMP_pressure;BME280_temperature;BME280_humidity;BME280_pressure;Samples;Min_cycle;Max_cycle;Signal;HPM_P1;HPM_P2
2020/03/10 00:02:00;;;;;;;6.9;5.5;;;;;;;3.69;95.22949;960.9761;;;;
2020/03/10 00:04:25;;;;;;;7.7;5.8;;;;;;;3.67;95.56445;960.9163;;;;
2020/03/10 00:06:51;;;;;;;9.4;7.8;;;;;;;3.69;95.88574;960.8923;;;;
2020/03/10 00:09:16;;;;;;;7;6.3;;;;;;;3.77;95.08887;960.8809;;;;
2020/03/10 00:11:41;;;;;;;9.7;7.9;;;;;;;3.65;96.03613;960.8415;;;;
2020/03/10 00:14:06;;;;;;;7.4;6.6;;;;;;;3.54;96.08008;960.791;;;;
2020/03/10 00:16:31;;;;;;;8.5;7.4;;;;;;;3.68;95.69141;960.7174;;;;
2020/03/10 00:18:57;;;;;;;6.6;5.9;;;;;;;3.72;95.31445;960.6767;;;;
2020/03/10 00:21:22;;;;;;;8.1;6.3;;;;;;;3.59;95.52246;960.6454;;;;
2020/03/10 00:23:48;;;;;;;7.2;6;;;;;;;3.7;96.02637;960.6575;;;;
2020/03/10 00:26:13;;;;;;;8.1;7.3;;;;;;;3.68;95.91797;960.6102;;;;
2020/03/10 00:28:38;;;;;;;7.4;6.7;;;;;;;3.52;96.3457;960.577;;;;
2020/03/10 00:31:04;;;;;;;7.4;6.6;;;;;;;3.49;96.55273;960.5772;;;;
2020/03/10 00:33:29;;;;;;;8.4;6.8;;;;;;;3.41;97.19336;960.5344;;;;
2020/03/10 00:35:54;;;;;;;8.2;7.4;;;;;;;3.4;97.25684;960.5076;;;;
2020/03/10 00:38:19;;;;;;;7.5;6.7;;;;;;;3.45;96.75977;960.5142;;;;
2020/03/10 00:40:44;;;;;;;7.9;7.1;;;;;;;3.42;97.39844;960.4849;;;;
2020/03/10 00:43:09;;;;;;;8.8;8;;;;;;;3.42;97.28613;960.4678;;;;
2020/03/10 00:45:35;;;;;;;8.2;7.4;;;;;;;3.5;96.97559;960.4952;;;;
2020/03/10 00:48:00;;;;;;;8.8;7.9;;;;;;;3.46;96.94336;960.5097;;;;
2020/03/10 00:50:25;;;;;;;9;7.6;;;;;;;3.53;97.17676;960.466;;;;
2020/03/10 00:52:50;;;;;;;9.2;8.2;;;;;;;3.42;97.53418;960.5322;;;;
2020/03/10 00:55:15;;;;;;;8.8;7.9;;;;;;;3.45;97.30273;960.5206;;;;
2020/03/10 00:57:40;;;;;;;10.2;8.7;;;;;;;3.38;97.43359;960.4969;;;;
2020/03/10 01:00:06;;;;;;;9.4;8.5;;;;;;;3.33;97.78613;960.4112;;;;
2020/03/10 01:02:31;;;;;;;9.3;8.4;;;;;;;3.32;97.42188;960.3489;;;;
2020/03/10 01:04:56;;;;;;;9.2;8.3;;;;;;;3.38;97.45898;960.3228;;;;
2020/03/10 01:07:22;;;;;;;9.2;8.3;;;;;;;3.35;97.31445;960.2891;;;;
2020/03/10 01:09:47;;;;;;;9.2;8.3;;;;;;;3.37;97.61328;960.2841;;;;
2020/03/10 01:12:12;;;;;;;8.8;7.9;;;;;;;3.49;96.99805;960.2432;;;;
2020/03/10 01:14:37;;;;;;;8.2;7.4;;;;;;;3.41;96.94434;960.2879;;;;
2020/03/10 01:17:02;;;;;;;8.9;8.1;;;;;;;3.41;97.14746;960.2367;;;;
2020/03/10 01:19:27;;;;;;;8.6;7.8;;;;;;;3.44;97.12207;960.241;;;;
2020/03/10 01:21:53;;;;;;;8.9;7.6;;;;;;;3.38;96.89063;960.108;;;;
2020/03/10 01:24:18;;;;;;;8.7;7.8;;;;;;;3.28;97.40039;960.084;;;;
2020/03/10 01:26:43;;;;;;;8.5;7.5;;;;;;;3.3;96.94238;960.1255;;;;
2020/03/10 01:29:08;;;;;;;9;7.5;;;;;;;3.39;97.25684;960.0864;;;;
2020/03/10 01:31:34;;;;;;;8;7.2;;;;;;;3.48;96.36035;960.084;;;;
2020/03/10 01:33:59;;;;;;;7.4;6.6;;;;;;;3.53;96.41602;960.1429;;;;
2020/03/10 01:36:24;;;;;;;7.8;7;;;;;;;3.4;96.00293;960.1567;;;;
2020/03/10 01:38:49;;;;;;;9.1;7.5;;;;;;;3.31;96.77441;960.1677;;;;
2020/03/10 01:41:14;;;;;;;7.6;6.6;;;;;;;3.36;96.63965;960.2097;;;;
2020/03/10 01:43:40;;;;;;;10.9;8.8;;;;;;;3.34;96.75781;960.1934;;;;
2020/03/10 01:46:05;;;;;;;12.6;8.4;;;;;;;3.33;96.62891;960.2371;;;;
2020/03/10 01:48:31;;;;;;;11.9;8.5;;;;;;;3.47;96.60742;960.2908;;;;
2020/03/10 01:50:56;;;;;;;8.5;7.4;;;;;;;3.51;96.04785;960.2464;;;;
2020/03/10 01:53:21;;;;;;;9.6;7.8;;;;;;;3.45;96.18262;960.188;;;;
2020/03/10 01:55:46;;;;;;;8.7;7;;;;;;;3.48;96.21094;960.0831;;;;
2020/03/10 01:58:12;;;;;;;8.8;6.5;;;;;;;3.4;96.02539;960.0256;;;;
2020/03/10 02:00:37;;;;;;;8.4;6.3;;;;;;;3.51;96.30762;959.937;;;;
2020/03/10 02:03:02;;;;;;;8.6;6;;;;;;;3.41;96.36719;959.9625;;;;
2020/03/10 02:05:27;;;;;;;7.8;5.6;;;;;;;3.45;95.66211;959.94;;;;
2020/03/10 02:07:52;;;;;;;8.1;6.1;;;;;;;3.35;96.04688;959.7899;;;;
2020/03/10 02:10:17;;;;;;;6.8;5.2;;;;;;;3.45;95.77539;959.7137;;;;
2020/03/10 02:12:43;;;;;;;6.7;5.2;;;;;;;3.41;95.99512;959.7283;;;;
2020/03/10 02:15:08;;;;;;;7.1;5.7;;;;;;;3.38;96.4375;959.6588;;;;
2020/03/10 02:17:33;;;;;;;7.2;5.5;;;;;;;3.38;96.41504;959.6223;;;;
2020/03/10 02:19:58;;;;;;;7.3;5.6;;;;;;;3.43;96.30273;959.6434;;;;
2020/03/10 02:22:24;;;;;;;6.7;5.4;;;;;;;3.3;96.49902;959.6761;;;;
2020/03/10 02:24:49;;;;;;;7.5;5.6;;;;;;;3.36;96.01758;959.6871;;;;
2020/03/10 02:27:14;;;;;;;7;4.8;;;;;;;3.44;95.96582;959.6494;;;;
2020/03/10 02:29:39;;;;;;;8.3;5.4;;;;;;;3.37;95.81348;959.6157;;;;
2020/03/10 02:32:04;;;;;;;6.6;5.2;;;;;;;3.31;95.80176;959.5751;;;;
2020/03/10 02:34:29;;;;;;;8.1;5.3;;;;;;;3.31;95.90332;959.4728;;;;
2020/03/10 02:36:55;;;;;;;6.7;4.8;;;;;;;3.38;95.92871;959.4049;;;;
2020/03/10 02:39:20;;;;;;;6.2;4.4;;;;;;;3.38;95.31738;959.4267;;;;
2020/03/10 02:41:46;;;;;;;8.2;4.6;;;;;;;3.43;95.49902;959.3503;;;;
2020/03/10 02:44:11;;;;;;;5.5;4.1;;;;;;;3.41;95.50879;959.3867;;;;
2020/03/10 02:46:37;;;;;;;7.6;4.5;;;;;;;3.44;95.16406;959.2527;;;;
2020/03/10 02:49:02;;;;;;;7.1;4.3;;;;;;;3.42;95.51953;959.225;;;;
2020/03/10 02:51:28;;;;;;;7.2;4.2;;;;;;;3.4;94.91602;959.2766;;;;
2020/03/10 02:53:53;;;;;;;7.2;4.1;;;;;;;3.39;95.12891;959.2704;;;;
2020/03/10 02:56:18;;;;;;;5.1;3.8;;;;;;;3.48;95.09082;959.3405;;;;
2020/03/10 02:58:44;;;;;;;6.3;4;;;;;;;3.42;94.58008;959.3186;;;;
2020/03/10 03:01:09;;;;;;;6.3;3.7;;;;;;;3.54;94.74414;959.2523;;;;
2020/03/10 03:03:34;;;;;;;6.8;3.7;;;;;;;3.52;94.18359;959.2037;;;;
2020/03/10 03:05:59;;;;;;;7.2;3.6;;;;;;;3.52;93.93652;959.2239;;;;
2020/03/10 03:08:24;;;;;;;7.6;3.7;;;;;;;3.44;94.04297;959.1328;;;;
2020/03/10 03:10:49;;;;;;;5.9;2.7;;;;;;;3.46;94.30566;959.093;;;;
2020/03/10 03:13:15;;;;;;;6.2;3.4;;;;;;;3.44;94.12207;959.1415;;;;
2020/03/10 03:15:40;;;;;;;5.9;3;;;;;;;3.57;93.89941;959.1447;;;;
2020/03/10 03:18:05;;;;;;;5.1;2.9;;;;;;;3.48;94.25293;959.1286;;;;
2020/03/10 03:20:31;;;;;;;6.1;3;;;;;;;3.6;94.40527;959.101;;;;
2020/03/10 03:22:56;;;;;;;7;3;;;;;;;3.68;94.00391;959.0776;;;;
2020/03/10 03:25:21;;;;;;;4.7;2.7;;;;;;;3.7;92.92285;959.1362;;;;
2020/03/10 03:27:46;;;;;;;6.2;2.6;;;;;;;3.75;92.78711;959.2304;;;;
2020/03/10 03:30:11;;;;;;;6;2.8;;;;;;;3.6;93.0127;959.2266;;;;
2020/03/10 03:32:36;;;;;;;4.4;2.4;;;;;;;3.61;93.68262;959.2466;;;;
2020/03/10 03:35:02;;;;;;;5.4;2.4;;;;;;;3.74;92.81738;959.3049;;;;
2020/03/10 03:37:27;;;;;;;6.3;2.6;;;;;;;3.52;93.10742;959.4235;;;;
2020/03/10 03:39:52;;;;;;;5.6;2.6;;;;;;;3.62;92.88184;959.4308;;;;
2020/03/10 03:42:18;;;;;;;4.9;2.7;;;;;;;3.57;92.7666;959.359;;;;
2020/03/10 03:44:43;;;;;;;6.4;2.2;;;;;;;3.6;93.20703;959.5902;;;;
2020/03/10 03:47:08;;;;;;;4.5;1.9;;;;;;;3.6;93.02539;959.5877;;;;
2020/03/10 03:49:33;;;;;;;4.5;2.1;;;;;;;3.68;92.70117;959.5633;;;;
2020/03/10 03:51:58;;;;;;;5.4;2.3;;;;;;;3.62;92.69922;959.5722;;;;
2020/03/10 03:54:24;;;;;;;6.1;2.2;;;;;;;3.61;92.3457;959.4882;;;;
2020/03/10 03:56:49;;;;;;;5;2.1;;;;;;;3.69;91.875;959.4458;;;;
2020/03/10 03:59:14;;;;;;;6;2;;;;;;;3.69;92.04688;959.5539;;;;
2020/03/10 04:02:27;;;;;;;5.8;2.1;;;;;;;3.75;92.20703;959.4678;;;;
2020/03/10 04:04:52;;;;;;;4.5;1.9;;;;;;;3.78;91.62598;959.3614;;;;
2020/03/10 04:07:17;;;;;;;5.2;2.1;;;;;;;3.74;91.33105;959.3411;;;;
2020/03/10 04:09:42;;;;;;;6;2;;;;;;;3.81;91.04102;959.3939;;;;
2020/03/10 04:12:07;;;;;;;6.4;2.2;;;;;;;3.81;91.39355;959.5721;;;;
2020/03/10 04:14:32;;;;;;;5.7;1.8;;;;;;;3.75;91.30078;959.3423;;;;
2020/03/10 04:16:57;;;;;;;5;2;;;;;;;3.81;91.59766;959.3464;;;;
2020/03/10 04:19:22;;;;;;;4.7;2;;;;;;;3.85;91.16406;959.3287;;;;
2020/03/10 04:21:47;;;;;;;4.7;1.6;;;;;;;3.76;91.29199;959.3475;;;;
2020/03/10 04:24:12;;;;;;;5.8;2;;;;;;;3.89;91.07129;959.4213;;;;
2020/03/10 04:26:38;;;;;;;4.9;1.9;;;;;;;3.85;91.43555;959.4957;;;;
2020/03/10 04:29:03;;;;;;;4.9;1.6;;;;;;;3.92;91.00684;959.4977;;;;
2020/03/10 04:31:44;;;;;;;5.1;1.6;;;;;;;3.87;90.9541;959.3638;;;;
2020/03/10 04:33:53;;;;;;;6.7;2.1;;;;;;;3.95;90.67676;959.2553;;;;
2020/03/10 04:36:18;;;;;;;5.2;1.7;;;;;;;3.95;90.2002;959.2408;;;;
2020/03/10 04:38:43;;;;;;;4.2;1.9;;;;;;;4.02;90.50879;959.1145;;;;
2020/03/10 04:41:08;;;;;;;4.1;1.7;;;;;;;4.05;90.23145;959.0911;;;;
2020/03/10 04:43:33;;;;;;;6.1;1.7;;;;;;;3.99;90.01563;959.0667;;;;
2020/03/10 04:45:58;;;;;;;4.4;1.5;;;;;;;3.93;90.65918;959.072;;;;
2020/03/10 04:48:23;;;;;;;5.5;2.1;;;;;;;3.97;90.21387;959.1365;;;;
2020/03/10 04:50:48;;;;;;;5.3;1.7;;;;;;;4;89.62988;959.1572;;;;
2020/03/10 04:53:14;;;;;;;4.6;1.6;;;;;;;4.07;90.06445;959.1568;;;;
2020/03/10 04:55:39;;;;;;;5.5;2;;;;;;;4.05;88.75781;959.1094;;;;
2020/03/10 04:58:04;;;;;;;5.3;1.5;;;;;;;4.02;89.13672;959.122;;;;
2020/03/10 05:00:30;;;;;;;4.9;1.9;;;;;;;4.05;88.88184;959.0572;;;;
2020/03/10 05:02:55;;;;;;;5.6;1.8;;;;;;;4.21;88.14648;958.9858;;;;
2020/03/10 05:05:20;;;;;;;6.9;2.1;;;;;;;4.13;88.17285;958.9549;;;;
2020/03/10 05:07:45;;;;;;;5.5;1.8;;;;;;;4.14;88.1748;958.8625;;;;
2020/03/10 05:10:11;;;;;;;4.8;1.6;;;;;;;4.14;87.64453;958.7377;;;;
2020/03/10 05:12:36;;;;;;;4.3;1.5;;;;;;;4.17;87.25293;958.6494;;;;
2020/03/10 05:15:01;;;;;;;5.1;1.8;;;;;;;4.2;87.15625;958.5981;;;;
2020/03/10 05:17:26;;;;;;;6.1;1.5;;;;;;;4.24;86.87988;958.6401;;;;
2020/03/10 05:19:51;;;;;;;5.2;1.6;;;;;;;4.19;86.74805;958.5449;;;;
2020/03/10 05:22:16;;;;;;;5.3;1.8;;;;;;;4.21;86.51172;958.3655;;;;
2020/03/10 05:24:42;;;;;;;6;1.5;;;;;;;4.3;86.19141;958.3112;;;;
2020/03/10 05:27:07;;;;;;;5.3;1.7;;;;;;;4.26;86.13477;958.2579;;;;
2020/03/10 05:29:32;;;;;;;5.9;1.8;;;;;;;4.34;86.03809;958.1039;;;;
2020/03/10 05:31:57;;;;;;;4.7;1.6;;;;;;;4.43;85.84082;958.0402;;;;
2020/03/10 05:35:48;;;;;;;6.8;1.9;;;;;;;4.39;85.17578;958.0419;;;;
2020/03/10 05:38:13;;;;;;;4.6;1.8;;;;;;;4.4;85.00684;958.118;;;;
2020/03/10 05:40:38;;;;;;;5.2;1.8;;;;;;;4.42;84.47949;958.0233;;;;
2020/03/10 05:43:04;;;;;;;6.5;1.5;;;;;;;4.51;84.42871;957.8967;;;;
2020/03/10 05:45:29;;;;;;;4.8;1.8;;;;;;;4.45;83.75781;957.8153;;;;
2020/03/10 05:47:54;;;;;;;5.4;1.9;;;;;;;4.46;83.88477;957.8812;;;;
2020/03/10 05:50:51;;;;;;;5.8;1.7;;;;;;;4.53;84.22656;957.9613;;;;
2020/03/10 05:53:17;;;;;;;5.5;1.8;;;;;;;4.54;83.82129;957.7996;;;;
2020/03/10 05:55:42;;;;;;;6.4;1.9;;;;;;;4.57;83.20215;957.9113;;;;
2020/03/10 05:58:07;;;;;;;6.7;1.9;;;;;;;4.54;83.51465;957.8842;;;;
2020/03/10 06:00:32;;;;;;;5.2;1.6;;;;;;;4.57;83.27051;957.8661;;;;
2020/03/10 06:02:57;;;;;;;5.5;1.8;;;;;;;4.62;83.05371;957.9561;;;;
2020/03/10 06:05:22;;;;;;;5.5;1.7;;;;;;;4.67;82.67871;957.9138;;;;
2020/03/10 06:07:47;;;;;;;5.9;1.9;;;;;;;4.66;82.2998;957.8751;;;;
2020/03/10 06:10:12;;;;;;;4.6;1.6;;;;;;;4.67;82.06543;957.9267;;;;
2020/03/10 06:12:37;;;;;;;5.5;1.5;;;;;;;4.72;81.97363;957.7597;;;;
2020/03/10 06:15:02;;;;;;;6.1;2;;;;;;;4.72;81.46094;957.6522;;;;
2020/03/10 06:17:28;;;;;;;5.6;1.6;;;;;;;4.73;81.40625;957.738;;;;
2020/03/10 06:19:53;;;;;;;7.2;1.8;;;;;;;4.8;80.66992;957.7775;;;;
2020/03/10 06:22:18;;;;;;;6.3;1.9;;;;;;;4.81;80.62793;957.8003;;;;
2020/03/10 06:24:43;;;;;;;6.7;1.9;;;;;;;4.8;80.38574;957.8354;;;;
2020/03/10 06:27:08;;;;;;;5.4;1.6;;;;;;;4.83;80.45898;957.9124;;;;
2020/03/10 06:29:33;;;;;;;4.9;1.6;;;;;;;4.81;80.18359;957.9559;;;;
2020/03/10 06:31:59;;;;;;;5.7;1.8;;;;;;;4.84;80.09766;957.9013;;;;
2020/03/10 06:34:24;;;;;;;5;1.8;;;;;;;4.9;80.29102;957.952;;;;
2020/03/10 06:36:49;;;;;;;5.1;1.8;;;;;;;4.84;79.87012;957.9587;;;;
2020/03/10 06:39:14;;;;;;;6.8;2.1;;;;;;;4.91;80.08789;957.9906;;;;
2020/03/10 06:41:39;;;;;;;5.8;1.6;;;;;;;4.88;79.73145;957.988;;;;
2020/03/10 06:44:04;;;;;;;7;2;;;;;;;4.91;79.47656;958.0344;;;;
2020/03/10 06:46:29;;;;;;;6.2;1.8;;;;;;;4.95;79.5625;958.1091;;;;
2020/03/10 06:48:54;;;;;;;8;2.1;;;;;;;5.03;79.03223;958.1566;;;;
2020/03/10 06:51:19;;;;;;;8;2.2;;;;;;;5.01;78.94824;958.2559;;;;
2020/03/10 06:53:44;;;;;;;8.1;1.8;;;;;;;4.97;78.7041;958.2942;;;;
2020/03/10 06:56:09;;;;;;;6.3;1.8;;;;;;;5.04;79.03418;958.1505;;;;
2020/03/10 06:58:34;;;;;;;5.6;1.6;;;;;;;5.05;79.21777;958.1121;;;;
2020/03/10 07:00:59;;;;;;;5.3;1.7;;;;;;;5;78.94824;958.0903;;;;
2020/03/10 07:03:24;;;;;;;5.5;2;;;;;;;5.04;79;958.0891;;;;
2020/03/10 07:05:49;;;;;;;5.3;1.6;;;;;;;5.06;78.34473;958.0682;;;;
2020/03/10 07:08:15;;;;;;;6.1;1.7;;;;;;;5.06;78.69629;958.0754;;;;
2020/03/10 07:10:40;;;;;;;5.4;1.5;;;;;;;5.08;77.85938;958.0405;;;;
2020/03/10 07:13:05;;;;;;;4.5;1.5;;;;;;;5.19;77.73047;958.1156;;;;
2020/03/10 07:15:30;;;;;;;4.8;1.5;;;;;;;5.21;77.89355;957.9711;;;;
2020/03/10 07:17:55;;;;;;;5.6;1.8;;;;;;;5.16;77.77148;957.9467;;;;
2020/03/10 07:20:21;;;;;;;4.4;1.7;;;;;;;5.26;77.84668;957.9484;;;;
2020/03/10 07:22:48;;;;;;;4.7;1.7;;;;;;;5.28;77.91797;957.887;;;;
2020/03/10 07:25:11;;;;;;;5.3;1.6;;;;;;;5.21;77.88477;958.0739;;;;
2020/03/10 07:27:36;;;;;;;5.8;1.6;;;;;;;5.18;78.01367;958.1105;;;;
2020/03/10 07:30:01;;;;;;;4.5;1.3;;;;;;;5.09;78.30371;957.945;;;;
2020/03/10 07:32:26;;;;;;;4.8;1.5;;;;;;;5.08;79.13379;957.9227;;;;
2020/03/10 07:34:52;;;;;;;3.6;1.4;;;;;;;5.17;80.4209;957.9355;;;;
2020/03/10 07:37:17;;;;;;;6.1;1.5;;;;;;;5.14;80.29102;958.087;;;;
2020/03/10 07:39:42;;;;;;;4.6;1.5;;;;;;;5.16;81.4541;957.9813;;;;
2020/03/10 07:42:07;;;;;;;4.2;1.5;;;;;;;4.95;82.37988;958.0187;;;;
2020/03/10 07:44:32;;;;;;;5.8;1.6;;;;;;;4.94;82.77539;958.0823;;;;
2020/03/10 07:46:57;;;;;;;3.9;1.3;;;;;;;4.91;83.97461;958.0958;;;;
2020/03/10 07:49:23;;;;;;;5.9;1.6;;;;;;;4.89;83.38965;958.0237;;;;
2020/03/10 07:51:48;;;;;;;5.2;1.7;;;;;;;4.98;84.44336;957.9958;;;;
2020/03/10 07:54:14;;;;;;;5.3;1.6;;;;;;;4.88;84.9668;958.0186;;;;
2020/03/10 07:56:39;;;;;;;4;1.5;;;;;;;4.73;85.11816;957.8886;;;;
2020/03/10 07:59:04;;;;;;;4.1;1.4;;;;;;;4.8;85.18945;957.8654;;;;
2020/03/10 08:01:29;;;;;;;5.1;1.6;;;;;;;4.78;85.37891;957.8984;;;;
2020/03/10 08:03:55;;;;;;;4.9;1.5;;;;;;;4.62;86.23242;958.0229;;;;
2020/03/10 08:06:20;;;;;;;5.1;1.6;;;;;;;4.67;86.91309;957.9548;;;;
2020/03/10 08:08:45;;;;;;;5.2;1.6;;;;;;;4.75;87.87012;957.8761;;;;
2020/03/10 08:11:11;;;;;;;5.4;1.6;;;;;;;4.69;87.70117;957.8725;;;;
2020/03/10 08:13:36;;;;;;;7.8;1.5;;;;;;;4.57;88.25293;957.8692;;;;
2020/03/10 08:16:01;;;;;;;5;1.6;;;;;;;4.55;89.62402;957.8728;;;;
2020/03/10 08:18:27;;;;;;;6.7;2.1;;;;;;;4.62;90.72656;957.7245;;;;
2020/03/10 08:20:52;;;;;;;6.1;2.1;;;;;;;4.46;90.76074;957.7224;;;;
2020/03/10 08:23:17;;;;;;;3.8;1.6;;;;;;;4.54;91.64063;957.7598;;;;
2020/03/10 08:25:43;;;;;;;5;1.6;;;;;;;4.42;92.3623;957.6439;;;;
2020/03/10 08:28:08;;;;;;;4.5;1.6;;;;;;;4.39;93.85352;957.6669;;;;
2020/03/10 08:30:33;;;;;;;6.8;1.9;;;;;;;4.35;94.27734;957.6252;;;;
2020/03/10 08:32:59;;;;;;;5.5;1.7;;;;;;;4.34;94.73828;957.5466;;;;
2020/03/10 08:35:24;;;;;;;3.8;1.6;;;;;;;4.4;95.11719;957.562;;;;
2020/03/10 08:37:49;;;;;;;7.5;1.8;;;;;;;4.23;95.31543;957.4302;;;;
2020/03/10 08:40:14;;;;;;;4.4;1.6;;;;;;;4.27;96.15332;957.5743;;;;
2020/03/10 08:42:39;;;;;;;4.6;1.4;;;;;;;4.18;95.87207;957.4483;;;;
2020/03/10 08:45:04;;;;;;;4;1.6;;;;;;;4.09;96.60059;957.4133;;;;
2020/03/10 08:47:52;;;;;;;5.7;1.8;;;;;;;4.13;97.64063;957.3666;;;;
2020/03/10 08:56:53;;;;;;;6.3;2.2;;;;;;;4.1;99.3916;957.2921;;;;
2020/03/10 08:59:14;;;;;;;4.8;1.9;;;;;;;4.26;100;957.3748;;;;
2020/03/10 09:01:39;;;;;;;5.7;1.7;;;;;;;4.04;98.1748;957.2658;;;;
2020/03/10 09:04:05;;;;;;;6.3;1.7;;;;;;;4.07;100;957.3638;;;;
2020/03/10 09:06:29;;;;;;;6.2;1.6;;;;;;;3.97;100;957.2648;;;;
2020/03/10 09:08:55;;;;;;;3.8;1.5;;;;;;;3.9;99.79883;957.234;;;;
2020/03/10 09:11:20;;;;;;;5;1.8;;;;;;;3.99;100;957.2095;;;;
2020/03/10 09:13:45;;;;;;;3.7;1.5;;;;;;;3.94;100;957.2369;;;;
2020/03/10 09:16:10;;;;;;;4.2;1.6;;;;;;;4.09;99.28711;957.2479;;;;
2020/03/10 09:18:35;;;;;;;3.9;1.6;;;;;;;4.09;100;957.3098;;;;
2020/03/10 09:21:00;;;;;;;3.7;1.5;;;;;;;3.98;100;957.2494;;;;
2020/03/10 09:23:25;;;;;;;4.1;1.3;;;;;;;3.92;100;957.1607;;;;
2020/03/10 09:25:50;;;;;;;4.3;1.5;;;;;;;3.88;100;957.2299;;;;
2020/03/10 09:28:15;;;;;;;4;1.4;;;;;;;3.82;100;957.2903;;;;
2020/03/10 09:30:40;;;;;;;4;1.6;;;;;;;4.07;100;957.2981;;;;
2020/03/10 09:33:05;;;;;;;3;1.3;;;;;;;3.94;100;957.2693;;;;
2020/03/10 09:35:31;;;;;;;3.9;1.6;;;;;;;3.88;100;957.2767;;;;
2020/03/10 09:37:56;;;;;;;3.5;1.5;;;;;;;3.88;100;957.3095;;;;
2020/03/10 09:40:21;;;;;;;3.4;1.2;;;;;;;3.78;100;957.312;;;;
2020/03/10 09:42:46;;;;;;;4.5;1.3;;;;;;;3.68;100;957.3028;;;;
2020/03/10 09:45:12;;;;;;;2.8;1.2;;;;;;;3.6;100;957.4069;;;;
2020/03/10 09:47:37;;;;;;;3.2;1.2;;;;;;;3.59;100;957.4188;;;;
2020/03/10 09:50:02;;;;;;;3.2;1.2;;;;;;;3.58;100;957.4688;;;;
2020/03/10 09:52:27;;;;;;;4.1;1.5;;;;;;;3.61;100;957.491;;;;
2020/03/10 09:54:52;;;;;;;3.2;1.2;;;;;;;3.7;100;957.415;;;;
2020/03/10 09:57:17;;;;;;;4;1.4;;;;;;;3.66;100;957.4257;;;;
2020/03/10 09:59:43;;;;;;;2.7;1.1;;;;;;;3.59;100;957.3957;;;;
2020/03/10 10:02:08;;;;;;;1.6;0.9;;;;;;;3.57;100;957.3638;;;;
2020/03/10 10:04:33;;;;;;;2.6;1.1;;;;;;;3.56;100;957.4497;;;;
2020/03/10 10:06:58;;;;;;;2;1;;;;;;;3.38;100;957.353;;;;
2020/03/10 10:09:23;;;;;;;1.9;1.3;;;;;;;3.32;100;957.4286;;;;
2020/03/10 10:11:49;;;;;;;2.3;1;;;;;;;3.41;100;957.4047;;;;
2020/03/10 10:14:14;;;;;;;2.3;1.2;;;;;;;3.59;100;957.3418;;;;
2020/03/10 10:16:39;;;;;;;1.4;1;;;;;;;3.56;100;957.2814;;;;
2020/03/10 10:19:04;;;;;;;2.1;1.2;;;;;;;3.58;100;957.2594;;;;
2020/03/10 10:21:30;;;;;;;2.2;1.3;;;;;;;3.49;100;957.1752;;;;
2020/03/10 10:23:55;;;;;;;1.5;1;;;;;;;3.37;100;957.117;;;;
2020/03/10 10:26:20;;;;;;;2.2;1;;;;;;;3.35;100;957.1423;;;;
2020/03/10 10:28:46;;;;;;;1.5;0.8;;;;;;;3.23;100;957.1507;;;;
2020/03/10 10:31:11;;;;;;;2.1;1;;;;;;;3.34;100;957.1373;;;;
2020/03/10 10:33:36;;;;;;;1.8;1;;;;;;;3.4;100;957.0592;;;;
2020/03/10 10:36:02;;;;;;;1.4;0.9;;;;;;;3.46;100;957.0804;;;;
2020/03/10 10:38:27;;;;;;;2.2;0.8;;;;;;;3.55;100;957.0157;;;;
2020/03/10 10:40:53;;;;;;;1.7;1.2;;;;;;;3.42;100;956.9219;;;;
2020/03/10 10:43:18;;;;;;;1.9;1;;;;;;;3.44;100;956.9594;;;;
2020/03/10 10:45:43;;;;;;;1.9;1.2;;;;;;;3.53;100;956.8613;;;;
2020/03/10 10:48:09;;;;;;;1.5;0.9;;;;;;;3.51;100;956.7685;;;;
2020/03/10 10:50:34;;;;;;;2;1.2;;;;;;;3.76;100;956.7784;;;;
2020/03/10 10:52:59;;;;;;;1.2;0.9;;;;;;;3.82;100;956.6834;;;;
2020/03/10 10:55:24;;;;;;;2.6;1.1;;;;;;;3.73;100;956.6685;;;;
2020/03/10 10:57:49;;;;;;;1.1;0.9;;;;;;;3.83;100;956.6997;;;;
2020/03/10 11:00:14;;;;;;;1.5;0.9;;;;;;;3.72;100;956.707;;;;
2020/03/10 11:02:39;;;;;;;2.8;1.1;;;;;;;3.91;100;956.6103;;;;
2020/03/10 11:05:05;;;;;;;2;1.2;;;;;;;3.89;100;956.5584;;;;
2020/03/10 11:07:30;;;;;;;2;0.9;;;;;;;3.92;100;956.5428;;;;
2020/03/10 11:09:55;;;;;;;2.2;1.3;;;;;;;3.78;100;956.5408;;;;
2020/03/10 11:12:21;;;;;;;1.9;1.1;;;;;;;3.97;100;956.4291;;;;
2020/03/10 11:14:46;;;;;;;3.9;2.3;;;;;;;4.1;100;956.4158;;;;
2020/03/10 11:17:12;;;;;;;3.2;1.6;;;;;;;4.12;100;956.3719;;;;
2020/03/10 11:19:37;;;;;;;2.7;1.7;;;;;;;4.2;100;956.3928;;;;
2020/03/10 11:22:02;;;;;;;1.7;1.2;;;;;;;4.18;100;956.3821;;;;
2020/03/10 11:24:28;;;;;;;2.6;1.3;;;;;;;4.18;100;956.3943;;;;
2020/03/10 11:26:53;;;;;;;1.7;1.1;;;;;;;4.07;100;956.3593;;;;
2020/03/10 11:29:18;;;;;;;1.9;1;;;;;;;4.18;100;956.3106;;;;
2020/03/10 11:31:43;;;;;;;1.6;0.9;;;;;;;4.3;100;956.3134;;;;
2020/03/10 11:34:08;;;;;;;1.7;1.3;;;;;;;4.3;100;956.2084;;;;
2020/03/10 11:36:34;;;;;;;2;1.3;;;;;;;4.35;100;956.2668;;;;
2020/03/10 11:38:59;;;;;;;3.2;2;;;;;;;4.39;100;956.2578;;;;
2020/03/10 11:41:24;;;;;;;1.7;1;;;;;;;4.36;100;956.1075;;;;
2020/03/10 11:43:49;;;;;;;2.2;1.2;;;;;;;4.45;100;956.2294;;;;
2020/03/10 11:46:15;;;;;;;1.5;1;;;;;;;4.57;100;956.1764;;;;
2020/03/10 11:48:40;;;;;;;2.2;1.2;;;;;;;4.53;100;956.142;;;;
2020/03/10 11:53:35;;;;;;;1.3;1.1;;;;;;;4.8;100;956.1928;;;;
2020/03/10 11:56:00;;;;;;;1.1;0.8;;;;;;;4.74;100;956.0842;;;;
2020/03/10 11:58:25;;;;;;;2.1;1.1;;;;;;;4.72;100;956.0778;;;;
2020/03/10 12:00:50;;;;;;;1.4;1;;;;;;;4.9;100;956.0259;;;;
2020/03/10 12:03:15;;;;;;;1.6;0.8;;;;;;;4.89;100;956.1016;;;;
2020/03/10 12:05:40;;;;;;;1.2;1.1;;;;;;;4.88;100;956.0522;;;;
2020/03/10 12:08:05;;;;;;;0.9;0.7;;;;;;;4.86;100;956.0787;;;;
2020/03/10 12:10:30;;;;;;;1.6;0.8;;;;;;;4.96;100;955.9554;;;;
2020/03/10 12:12:55;;;;;;;1.4;0.9;;;;;;;4.9;100;955.9856;;;;
2020/03/10 12:15:21;;;;;;;1.3;1;;;;;;;5.01;100;955.9136;;;;
2020/03/10 12:17:46;;;;;;;1.1;1;;;;;;;4.88;100;955.8948;;;;
2020/03/10 12:20:11;;;;;;;2.1;1.2;;;;;;;4.98;100;955.7866;;;;
2020/03/10 12:22:36;;;;;;;1.3;1.1;;;;;;;4.98;100;955.8892;;;;
2020/03/10 12:25:01;;;;;;;1.5;1.1;;;;;;;4.9;100;955.829;;;;
2020/03/10 12:27:26;;;;;;;1.3;1;;;;;;;5;100;955.7511;;;;
2020/03/10 12:29:51;;;;;;;2.4;2;;;;;;;5.15;100;955.7892;;;;
2020/03/10 12:32:16;;;;;;;1.9;1.6;;;;;;;5.04;100;955.7605;;;;
2020/03/10 12:34:41;;;;;;;1.6;1.4;;;;;;;5.06;100;955.791;;;;
2020/03/10 12:37:06;;;;;;;3.1;1.4;;;;;;;5.14;100;955.7256;;;;
2020/03/10 12:39:31;;;;;;;1.8;1.4;;;;;;;5.1;100;955.6866;;;;
2020/03/10 12:41:56;;;;;;;1.5;1.1;;;;;;;5.12;100;955.6397;;;;
2020/03/10 12:44:22;;;;;;;1.3;0.9;;;;;;;5.14;100;955.5852;;;;
2020/03/10 12:46:47;;;;;;;1.9;0.8;;;;;;;5.01;100;955.5302;;;;
2020/03/10 12:49:12;;;;;;;0.8;0.8;;;;;;;5.06;100;955.4785;;;;
2020/03/10 12:51:37;;;;;;;1.6;1;;;;;;;5.01;100;955.6005;;;;
2020/03/10 12:54:02;;;;;;;1.6;1.3;;;;;;;5.09;100;955.5062;;;;
2020/03/10 12:56:27;;;;;;;2.1;1.5;;;;;;;5.26;100;955.5714;;;;
2020/03/10 12:58:52;;;;;;;1.1;1;;;;;;;5.17;100;955.5756;;;;
2020/03/10 13:01:17;;;;;;;1.6;1.2;;;;;;;5.26;100;955.5496;;;;
2020/03/10 13:03:42;;;;;;;1.5;1;;;;;;;5.25;100;955.5017;;;;
2020/03/10 13:06:08;;;;;;;1.1;1;;;;;;;5.18;100;955.527;;;;
2020/03/10 13:08:33;;;;;;;1.8;1.2;;;;;;;5.16;100;955.4471;;;;
2020/03/10 13:10:58;;;;;;;2.2;1.2;;;;;;;5.14;100;955.4301;;;;
2020/03/10 13:13:23;;;;;;;1.6;1.1;;;;;;;5.23;100;955.4056;;;;
2020/03/10 13:15:48;;;;;;;1.5;1;;;;;;;5.28;100;955.3903;;;;
2020/03/10 13:18:13;;;;;;;1.4;0.9;;;;;;;5.21;100;955.4246;;;;
2020/03/10 13:20:38;;;;;;;1.9;1.2;;;;;;;5.26;100;955.4252;;;;
2020/03/10 13:23:03;;;;;;;2.8;1;;;;;;;5.28;100;955.3943;;;;
2020/03/10 13:25:29;;;;;;;1.9;0.9;;;;;;;5.2;100;955.3586;;;;
2020/03/10 13:27:54;;;;;;;1.3;1;;;;;;;5.22;100;955.2989;;;;
2020/03/10 13:30:19;;;;;;;0.8;0.7;;;;;;;5.26;100;955.3359;;;;
2020/03/10 13:32:44;;;;;;;1.3;0.8;;;;;;;5.24;100;955.3125;;;;
2020/03/10 13:35:09;;;;;;;1;0.8;;;;;;;5.21;100;955.2508;;;;
2020/03/10 13:37:35;;;;;;;1.1;0.9;;;;;;;5.25;100;955.2109;;;;
2020/03/10 13:40:00;;;;;;;0.9;0.7;;;;;;;5.25;100;955.2933;;;;
2020/03/10 13:42:26;;;;;;;1.6;0.8;;;;;;;5.26;100;955.2615;;;;
2020/03/10 13:44:51;;;;;;;1.3;0.7;;;;;;;5.36;100;955.1855;;;;
2020/03/10 13:47:16;;;;;;;1.2;0.7;;;;;;;5.49;100;955.1425;;;;
2020/03/10 13:49:41;;;;;;;1.1;0.7;;;;;;;5.48;100;955.1884;;;;
2020/03/10 13:52:06;;;;;;;0.9;0.7;;;;;;;5.4;100;955.1664;;;;
2020/03/10 13:54:31;;;;;;;0.8;0.8;;;;;;;5.45;100;955.2456;;;;
2020/03/10 13:56:56;;;;;;;1.2;0.7;;;;;;;5.49;100;955.2823;;;;
2020/03/10 13:59:22;;;;;;;1.5;0.9;;;;;;;5.38;100;955.2065;;;;
2020/03/10 14:01:47;;;;;;;1;0.7;;;;;;;5.53;100;955.2874;;;;
2020/03/10 14:04:12;;;;;;;0.9;0.6;;;;;;;5.41;100;955.2369;;;;
2020/03/10 14:06:37;;;;;;;1;0.8;;;;;;;5.4;100;955.2722;;;;
2020/03/10 14:09:02;;;;;;;1.5;0.8;;;;;;;5.45;100;955.2157;;;;
2020/03/10 14:11:27;;;;;;;1.2;1;;;;;;;5.44;100;955.3364;;;;
2020/03/10 14:13:52;;;;;;;1.4;0.8;;;;;;;5.43;100;955.2344;;;;
2020/03/10 14:16:17;;;;;;;1.7;1;;;;;;;5.41;100;955.2626;;;;
2020/03/10 14:18:42;;;;;;;2.5;1;;;;;;;5.43;100;955.1398;;;;
2020/03/10 14:21:07;;;;;;;1.8;1.1;;;;;;;5.42;100;955.1267;;;;
2020/03/10 14:23:33;;;;;;;1.2;0.9;;;;;;;5.5;100;955.1492;;;;
2020/03/10 14:25:58;;;;;;;3;0.9;;;;;;;5.48;100;955.0978;;;;
2020/03/10 14:28:23;;;;;;;1.3;1.1;;;;;;;5.46;100;954.9969;;;;
2020/03/10 14:30:48;;;;;;;2.1;0.9;;;;;;;5.45;100;955.0308;;;;
2020/03/10 14:33:13;;;;;;;1.3;0.8;;;;;;;5.52;100;955.1541;;;;
2020/03/10 14:35:38;;;;;;;1.1;0.8;;;;;;;5.53;100;955.1323;;;;
2020/03/10 14:38:03;;;;;;;1.2;0.9;;;;;;;5.5;100;955.0546;;;;
2020/03/10 14:40:28;;;;;;;1.3;0.9;;;;;;;5.49;100;955.0489;;;;
2020/03/10 14:42:57;;;;;;;1.1;0.9;;;;;;;5.43;100;955.072;;;;
2020/03/10 14:45:19;;;;;;;0.9;0.8;;;;;;;5.46;100;955.1125;;;;
2020/03/10 14:47:44;;;;;;;0.8;0.8;;;;;;;5.55;100;955.2454;;;;
2020/03/10 14:50:09;;;;;;;1.3;0.9;;;;;;;5.46;100;955.2338;;;;
2020/03/10 14:52:34;;;;;;;1.1;0.9;;;;;;;5.52;100;955.1976;;;;
2020/03/10 14:54:59;;;;;;;1.4;0.8;;;;;;;5.59;100;955.2178;;;;
2020/03/10 14:57:24;;;;;;;1.3;0.8;;;;;;;5.55;100;955.264;;;;
2020/03/10 14:59:49;;;;;;;1.3;0.8;;;;;;;5.59;100;955.2352;;;;
2020/03/10 15:02:14;;;;;;;2;0.9;;;;;;;5.6;100;955.2042;;;;
2020/03/10 15:04:39;;;;;;;1;0.8;;;;;;;5.59;100;955.1891;;;;
2020/03/10 15:07:04;;;;;;;1.8;0.9;;;;;;;5.59;100;955.2198;;;;